Taipei/Songshan

Airport
ICAO code: 
RCSS
Summary
ICAO Region: 
APAC
Territory: 
Location: 
Songshan District, Taipei,
Coordinates: 
Aerial View: 
25° 4' 9.843" N, 121° 33' 7.207" E
Metar
Observation
RCSS 180930Z 09017KT 9999 -RA FEW007 BKN025 BKN050 16/16 Q1020 NOSIG RMK A3012
Station
Sungshan / Taipei
Date/Time
2022-01-18 09:30:00
Wind direction
90°
Wind speed
17 kts
Lowest cloud amount
few clouds
Temperature
16°C
Dew point
16°C
Humidity
100%
QNH
1020 hPa
Weather condition
light rain

Description

Taipei Songshan Airport is a midsize commercial airport and military airbase located in Songshan, Taipei, Taiwan. It is one of three Taiwanese airports with regular international flights.

Climatology

Humid “subtropical” climate (Köppen climate classification Cfa) - characterized by hot, humid summers and cool winters. Significant amounts of precipitation occur in all seasons in most areas. Winter rainfall is associated with large storms.

Runways

Designator Length Width Surface Rops
10/28 2605 60 ASP Yes/Yes
Airport map: 
Aerial View: 

Accidents and Serious Incidents at or in the vicinity of RCSS

SKYbrary Partners:

Safety knowledge contributed by: